Time;durP1;ratioP1;P1;durP2;ratioP2;P2;SDS_P1;SDS_P2;PMS_P1;PMS_P2;Temp;Humidity;BMP_temperature;BMP_pressure;BME280_temperature;BME280_humidity;BME280_pressure;Samples;Min_cycle;Max_cycle;Signal;HPM_P1;HPM_P2
2023/11/24 00:00:04;;;;;;;0.80;0.75;;;8.10;99.90;;;;;;4945688;29;20039;-84
2023/11/24 00:02:38;;;;;;;1.65;0.98;;;8.10;99.90;;;;;;4953991;28;20473;-84
2023/11/24 00:05:08;;;;;;;1.35;1.25;;;8.10;99.90;;;;;;4943936;29;20040;-84
2023/11/24 00:07:35;;;;;;;1.25;1.20;;;8.10;99.90;;;;;;4944772;29;20396;-88
2023/11/24 00:10:02;;;;;;;0.77;0.77;;;8.20;99.90;;;;;;4943396;28;20054;-87
2023/11/24 00:12:28;;;;;;;0.63;0.63;;;8.20;99.90;;;;;;4930827;29;20031;-83
2023/11/24 00:14:55;;;;;;;1.02;0.68;;;8.20;99.90;;;;;;4945640;29;20027;-85
2023/11/24 00:17:22;;;;;;;0.57;0.57;;;8.20;99.90;;;;;;4940946;29;20056;-83
2023/11/24 00:19:48;;;;;;;1.08;0.73;;;8.20;99.90;;;;;;4942912;29;20412;-84
2023/11/24 00:22:14;;;;;;;0.32;0.32;;;8.20;99.90;;;;;;4949035;29;20126;-83
2023/11/24 00:24:42;;;;;;;0.50;0.50;;;8.20;99.90;;;;;;4948962;29;20388;-83
2023/11/24 00:27:08;;;;;;;0.70;0.70;;;8.20;99.90;;;;;;4926072;29;20047;-83
2023/11/24 00:29:35;;;;;;;0.25;0.25;;;8.20;99.90;;;;;;4941465;29;20054;-85
2023/11/24 00:32:03;;;;;;;0.90;0.90;;;8.30;99.90;;;;;;4946517;29;20050;-81
2023/11/24 00:34:30;;;;;;;1.42;1.35;;;8.30;99.90;;;;;;4944634;29;20035;-84
2023/11/24 00:36:58;;;;;;;0.40;0.40;;;8.40;99.90;;;;;;4943990;29;20048;-83
2023/11/24 00:39:24;;;;;;;0.55;0.50;;;8.60;99.90;;;;;;4939760;29;20036;-83
2023/11/24 00:41:51;;;;;;;0.10;0.10;;;8.70;99.90;;;;;;4929920;29;20050;-83
2023/11/24 00:44:17;;;;;;;0.35;0.30;;;8.90;99.90;;;;;;4956149;29;20036;-84
2023/11/24 00:46:44;;;;;;;0.25;0.25;;;9.10;99.90;;;;;;4961794;29;20035;-80
2023/11/24 00:49:10;;;;;;;0.20;0.20;;;9.30;99.90;;;;;;4940498;29;20060;-85
2023/11/24 00:51:37;;;;;;;0.57;0.47;;;9.30;99.90;;;;;;4944339;29;20036;-84
2023/11/24 00:54:03;;;;;;;0.40;0.40;;;9.40;99.90;;;;;;4947863;28;20030;-83
2023/11/24 00:56:29;;;;;;;0.10;0.10;;;9.40;99.90;;;;;;4957656;29;20027;-83
2023/11/24 00:58:55;;;;;;;1.00;0.63;;;9.30;99.90;;;;;;4963062;28;20049;-84
2023/11/24 01:01:21;;;;;;;0.40;0.38;;;9.30;99.90;;;;;;4946907;29;20062;-82
2023/11/24 01:03:48;;;;;;;0.45;0.30;;;9.30;99.90;;;;;;4929804;29;20348;-82
2023/11/24 01:06:14;;;;;;;1.00;0.77;;;9.30;99.90;;;;;;4947704;28;20392;-82
2023/11/24 01:08:40;;;;;;;0.40;0.40;;;9.30;99.90;;;;;;4943618;29;20035;-82
2023/11/24 01:11:06;;;;;;;0.30;0.30;;;9.30;99.90;;;;;;4926448;29;20051;-82
2023/11/24 01:13:35;;;;;;;1.10;0.65;;;9.20;99.90;;;;;;4941620;29;20035;-83
2023/11/24 01:16:02;;;;;;;0.50;0.50;;;9.20;99.90;;;;;;4930583;29;20043;-84
2023/11/24 01:18:29;;;;;;;1.58;1.48;;;9.20;99.90;;;;;;4928765;29;20055;-84
2023/11/24 01:20:56;;;;;;;1.00;1.00;;;9.10;99.90;;;;;;4944128;29;20048;-83
2023/11/24 01:23:23;;;;;;;1.20;1.10;;;9.10;99.90;;;;;;4942987;29;20031;-85
2023/11/24 01:25:49;;;;;;;0.43;0.43;;;9.10;99.90;;;;;;4933308;29;20039;-83
2023/11/24 01:28:15;;;;;;;0.32;0.32;;;9.10;99.90;;;;;;4935029;29;20043;-83
2023/11/24 01:30:43;;;;;;;0.50;0.50;;;9.10;99.90;;;;;;4941175;29;20044;-83
2023/11/24 01:33:09;;;;;;;0.55;0.55;;;9.00;99.90;;;;;;4940692;29;20035;-83
2023/11/24 01:35:35;;;;;;;1.88;1.45;;;8.90;99.90;;;;;;4928931;29;20055;-84
2023/11/24 01:38:03;;;;;;;0.68;0.68;;;8.90;1.00;;;;;;4948333;28;20058;-83
2023/11/24 01:40:29;;;;;;;1.05;1.05;;;8.90;1.00;;;;;;4931020;29;20152;-84
2023/11/24 01:42:55;;;;;;;0.65;0.63;;;8.80;1.00;;;;;;4947221;28;20059;-82
2023/11/24 01:45:21;;;;;;;0.47;0.43;;;8.70;1.00;;;;;;4943301;29;20047;-83
2023/11/24 01:47:47;;;;;;;1.77;1.67;;;8.70;1.00;;;;;;4947636;28;20063;-82
2023/11/24 01:50:16;;;;;;;5.45;1.60;;;8.60;1.00;;;;;;4945762;29;20381;-83
2023/11/24 01:52:43;;;;;;;2.45;0.82;;;8.50;1.00;;;;;;4943972;29;20035;-83
2023/11/24 01:55:13;;;;;;;0.30;0.28;;;8.50;1.00;;;;;;4943121;29;20043;-82
2023/11/24 01:57:41;;;;;;;1.42;1.33;;;8.40;1.00;;;;;;4948147;29;20043;-82
2023/11/24 02:00:13;;;;;;;1.55;1.00;;;8.50;1.70;;;;;;4947035;29;20040;-82
2023/11/24 02:02:42;;;;;;;0.50;0.50;;;8.40;3.10;;;;;;4948675;29;20048;-83
2023/11/24 02:05:09;;;;;;;0.98;0.88;;;8.30;5.80;;;;;;4949813;29;20043;-82
2023/11/24 02:07:36;;;;;;;0.38;0.30;;;8.30;13.60;;;;;;4931287;29;20945;-83
2023/11/24 02:10:03;;;;;;;0.68;0.52;;;8.30;15.90;;;;;;4930244;29;20043;-82
2023/11/24 02:12:29;;;;;;;0.75;0.75;;;8.40;1.00;;;;;;4948833;28;20043;-81
2023/11/24 02:14:55;;;;;;;0.10;0.10;;;8.40;1.00;;;;;;4942573;29;20400;-83
2023/11/24 02:17:22;;;;;;;1.08;1.08;;;8.30;1.00;;;;;;4926354;29;20404;-81
2023/11/24 02:19:50;;;;;;;0.32;0.32;;;8.30;1.00;;;;;;4945021;29;20401;-82
2023/11/24 02:22:16;;;;;;;2.42;0.90;;;8.50;1.00;;;;;;4946447;28;20472;-82
2023/11/24 02:24:42;;;;;;;0.10;0.10;;;8.40;1.00;;;;;;4930934;29;20473;-82
2023/11/24 02:27:09;;;;;;;0.40;0.30;;;8.40;1.00;;;;;;4944153;29;20054;-82
2023/11/24 02:29:35;;;;;;;0.17;0.17;;;8.40;1.00;;;;;;4930366;29;20051;-81
2023/11/24 02:32:02;;;;;;;0.10;0.10;;;8.50;1.00;;;;;;4949759;28;20396;-81
2023/11/24 02:34:31;;;;;;;0.20;0.20;;;8.40;1.00;;;;;;4929499;29;20039;-82
2023/11/24 02:36:57;;;;;;;0.63;0.50;;;8.50;1.00;;;;;;4926539;29;20044;-82
2023/11/24 02:39:23;;;;;;;0.45;0.32;;;8.50;1.00;;;;;;4926564;29;20067;-82
2023/11/24 02:41:50;;;;;;;0.90;0.75;;;8.50;1.00;;;;;;4933396;29;20085;-82
2023/11/24 02:44:16;;;;;;;0.75;0.75;;;8.50;1.00;;;;;;4946934;29;20031;-82
2023/11/24 02:46:42;;;;;;;2.63;0.85;;;8.60;1.00;;;;;;4932099;29;20071;-82
2023/11/24 02:49:09;;;;;;;0.30;0.30;;;8.60;1.00;;;;;;4949608;28;20055;-82
2023/11/24 02:51:35;;;;;;;0.77;0.77;;;8.60;1.00;;;;;;4947279;29;20134;-82
2023/11/24 02:54:01;;;;;;;0.50;0.50;;;8.60;1.00;;;;;;4933628;29;20050;-82
2023/11/24 02:56:28;;;;;;;0.10;0.10;;;8.70;1.00;;;;;;4944434;29;20035;-81
2023/11/24 02:58:54;;;;;;;0.10;0.10;;;8.80;1.00;;;;;;4926936;29;20051;-79
2023/11/24 03:01:20;;;;;;;0.28;0.28;;;8.80;28.60;;;;;;4929992;29;20062;-80
2023/11/24 03:03:46;;;;;;;0.10;0.10;;;8.70;58.80;;;;;;4949659;29;20500;-82
2023/11/24 03:06:12;;;;;;;1.65;0.57;;;8.60;42.80;;;;;;4949968;29;20036;-83
2023/11/24 03:08:39;;;;;;;0.32;0.30;;;8.40;75.90;;;;;;4952818;29;20043;-81
2023/11/24 03:11:06;;;;;;;0.10;0.10;;;8.20;99.90;;;;;;4951666;29;20047;-84
2023/11/24 03:13:33;;;;;;;1.23;0.40;;;8.10;99.90;;;;;;4950213;29;20039;-81
2023/11/24 03:16:01;;;;;;;0.20;0.20;;;8.00;99.90;;;;;;4928438;29;20109;-80
2023/11/24 03:18:27;;;;;;;0.17;0.17;;;7.90;99.90;;;;;;4926507;29;20401;-80
2023/11/24 03:20:53;;;;;;;0.25;0.25;;;7.80;99.90;;;;;;4941145;29;20054;-79
2023/11/24 03:23:20;;;;;;;0.10;0.10;;;7.70;99.90;;;;;;4947202;29;20055;-79
2023/11/24 03:25:46;;;;;;;0.38;0.35;;;7.70;99.90;;;;;;4948525;29;20051;-80
2023/11/24 03:28:13;;;;;;;0.10;0.10;;;7.70;99.90;;;;;;4949153;29;20397;-79
2023/11/24 03:30:39;;;;;;;0.10;0.10;;;7.60;99.90;;;;;;4943439;29;20043;-80
2023/11/24 03:33:06;;;;;;;0.10;0.10;;;7.60;99.90;;;;;;4944089;29;20063;-79
2023/11/24 03:35:33;;;;;;;0.10;0.10;;;7.60;99.90;;;;;;4947484;28;20050;-79
2023/11/24 03:38:00;;;;;;;0.10;0.10;;;7.50;99.90;;;;;;4948377;29;20047;-82
2023/11/24 03:40:26;;;;;;;0.10;0.10;;;7.50;99.90;;;;;;4923319;29;20035;-80
2023/11/24 03:42:52;;;;;;;0.30;0.30;;;7.40;99.90;;;;;;4943516;29;20028;-81
2023/11/24 03:45:18;;;;;;;0.10;0.10;;;7.40;99.90;;;;;;4948377;29;20031;-79
2023/11/24 03:47:44;;;;;;;0.50;0.25;;;7.30;99.90;;;;;;4930893;29;20051;-81
2023/11/24 03:50:11;;;;;;;2.92;0.85;;;7.20;99.90;;;;;;4945956;29;20046;-81
2023/11/24 03:52:37;;;;;;;1.45;0.80;;;7.30;99.90;;;;;;4946638;29;20050;-79
2023/11/24 03:55:03;;;;;;;0.63;0.40;;;7.20;99.90;;;;;;4951443;29;20042;-80
2023/11/24 03:57:30;;;;;;;5.15;0.47;;;7.10;99.90;;;;;;4948289;29;20035;-81
2023/11/24 03:59:56;;;;;;;0.15;0.15;;;7.10;99.90;;;;;;4947051;28;20038;-79
2023/11/24 04:02:22;;;;;;;1.23;1.23;;;7.00;99.90;;;;;;4940178;29;20038;-81
2023/11/24 04:04:49;;;;;;;0.10;0.10;;;7.00;99.90;;;;;;4942593;29;20032;-81
2023/11/24 04:07:15;;;;;;;0.10;0.10;;;6.90;99.90;;;;;;4946186;29;20035;-80
2023/11/24 04:09:42;;;;;;;2.28;0.30;;;6.90;99.90;;;;;;4945003;29;20039;-81
2023/11/24 04:12:08;;;;;;;0.30;0.30;;;6.90;99.90;;;;;;4944780;29;20047;-81
2023/11/24 04:14:35;;;;;;;0.30;0.30;;;6.90;99.90;;;;;;4923633;29;20043;-80
2023/11/24 04:17:01;;;;;;;0.30;0.30;;;6.80;99.90;;;;;;4946938;29;20046;-82
2023/11/24 04:19:27;;;;;;;0.30;0.30;;;6.90;99.90;;;;;;4946163;29;20039;-81
2023/11/24 04:21:55;;;;;;;0.32;0.32;;;6.80;99.90;;;;;;4944451;29;20499;-83
2023/11/24 04:24:23;;;;;;;1.20;0.65;;;6.80;99.90;;;;;;4941080;29;20385;-82
2023/11/24 04:26:49;;;;;;;6.72;1.30;;;6.80;99.90;;;;;;4942633;29;20027;-82
2023/11/24 04:29:15;;;;;;;0.20;0.20;;;6.80;99.90;;;;;;4946996;29;20043;-83
2023/11/24 04:31:42;;;;;;;0.60;0.60;;;6.70;99.90;;;;;;4929576;29;20043;-83
2023/11/24 04:34:08;;;;;;;0.20;0.20;;;6.70;99.90;;;;;;4943242;29;20035;-83
2023/11/24 04:36:35;;;;;;;0.73;0.73;;;6.60;99.90;;;;;;4942643;29;20345;-83
2023/11/24 04:39:02;;;;;;;0.10;0.10;;;6.60;99.90;;;;;;4945972;29;20043;-84
2023/11/24 04:41:29;;;;;;;1.52;1.42;;;6.60;99.90;;;;;;4927925;29;20040;-82
2023/11/24 04:43:55;;;;;;;0.10;0.10;;;6.60;99.90;;;;;;4944098;29;20032;-83
2023/11/24 04:46:21;;;;;;;22.65;2.30;;;6.50;99.90;;;;;;4948513;29;20031;-84
2023/11/24 04:48:48;;;;;;;2.92;0.70;;;6.40;99.90;;;;;;4943060;29;20043;-82
2023/11/24 04:51:14;;;;;;;0.10;0.10;;;6.40;99.90;;;;;;4947514;29;20046;-83
2023/11/24 04:53:40;;;;;;;0.10;0.10;;;6.40;99.90;;;;;;4946949;29;20035;-82
2023/11/24 04:56:06;;;;;;;0.85;0.85;;;6.30;99.90;;;;;;4951245;29;20054;-83
2023/11/24 04:58:33;;;;;;;0.10;0.10;;;6.30;99.90;;;;;;4938193;29;20488;-82
2023/11/24 05:00:59;;;;;;;1.45;0.63;;;6.30;99.90;;;;;;4947229;29;20038;-82
2023/11/24 05:03:25;;;;;;;0.10;0.10;;;6.20;99.90;;;;;;4947636;29;20031;-83
2023/11/24 05:05:51;;;;;;;0.60;0.35;;;6.10;99.90;;;;;;4942439;29;20036;-83
2023/11/24 05:08:17;;;;;;;1.02;0.95;;;6.10;99.90;;;;;;4938533;29;20031;-80
2023/11/24 05:10:43;;;;;;;0.10;0.10;;;6.00;99.90;;;;;;4948086;29;20043;-82
2023/11/24 05:13:09;;;;;;;0.10;0.10;;;5.90;99.90;;;;;;4946396;29;20388;-82
2023/11/24 05:15:36;;;;;;;1.58;1.17;;;5.90;99.90;;;;;;4951649;28;20303;-82
2023/11/24 05:18:04;;;;;;;0.47;0.45;;;5.80;99.90;;;;;;4945366;28;20056;-82
2023/11/24 05:20:30;;;;;;;6.50;1.35;;;5.80;99.90;;;;;;4940415;29;20039;-81
2023/11/24 05:22:56;;;;;;;0.40;0.40;;;5.70;99.90;;;;;;4946833;29;20032;-80
2023/11/24 05:25:22;;;;;;;0.10;0.10;;;5.60;99.90;;;;;;4946213;29;20042;-82
2023/11/24 05:27:48;;;;;;;0.20;0.20;;;5.60;99.90;;;;;;4942543;29;20039;-81
2023/11/24 05:30:15;;;;;;;0.10;0.10;;;5.60;99.90;;;;;;4936883;29;20048;-82
2023/11/24 05:32:44;;;;;;;0.85;0.85;;;5.50;99.90;;;;;;4947815;29;20042;-82
2023/11/24 05:35:10;;;;;;;0.10;0.10;;;5.50;99.90;;;;;;4929931;29;20051;-82
2023/11/24 05:37:36;;;;;;;8.68;1.00;;;5.40;99.90;;;;;;4946177;28;20030;-82
2023/11/24 05:40:06;;;;;;;0.10;0.10;;;5.40;99.90;;;;;;4938846;29;20046;-82
2023/11/24 05:42:32;;;;;;;0.10;0.10;;;5.40;99.90;;;;;;4945712;29;20027;-83
2023/11/24 05:45:01;;;;;;;2.17;1.45;;;5.40;99.90;;;;;;4946915;29;20376;-82
2023/11/24 05:47:29;;;;;;;0.40;0.40;;;5.30;99.90;;;;;;4945944;29;20063;-83
2023/11/24 05:49:55;;;;;;;0.17;0.17;;;5.40;99.90;;;;;;4940208;29;20047;-83
2023/11/24 05:52:21;;;;;;;0.20;0.20;;;5.40;99.90;;;;;;4942818;29;20031;-82
2023/11/24 05:54:48;;;;;;;0.65;0.55;;;5.60;99.90;;;;;;4948938;28;20059;-82
2023/11/24 05:57:15;;;;;;;2.08;1.58;;;5.70;99.90;;;;;;4947974;28;20046;-83
2023/11/24 05:59:41;;;;;;;1.45;1.17;;;5.80;99.90;;;;;;4944072;29;20035;-82
2023/11/24 06:02:07;;;;;;;0.85;0.65;;;5.90;99.90;;;;;;4922740;29;20043;-83
2023/11/24 06:04:34;;;;;;;0.47;0.47;;;6.00;99.90;;;;;;4947403;28;20058;-82
2023/11/24 06:07:00;;;;;;;1.48;0.88;;;5.90;99.90;;;;;;4947517;29;20059;-83
2023/11/24 06:09:27;;;;;;;1.20;1.10;;;5.90;99.90;;;;;;4941143;29;20420;-83
2023/11/24 06:11:53;;;;;;;2.75;0.90;;;5.70;99.90;;;;;;4938993;29;20044;-83
2023/11/24 06:14:19;;;;;;;4.32;1.35;;;5.60;99.90;;;;;;4947191;28;20046;-79
2023/11/24 06:16:46;;;;;;;0.30;0.30;;;5.50;99.90;;;;;;4942172;28;20048;-82
2023/11/24 06:19:12;;;;;;;0.30;0.30;;;5.50;99.90;;;;;;4943816;29;20063;-81
2023/11/24 06:21:40;;;;;;;0.20;0.20;;;5.50;99.90;;;;;;4940219;29;20053;-81
2023/11/24 06:24:06;;;;;;;0.43;0.40;;;5.50;99.90;;;;;;4928603;29;20051;-81
2023/11/24 06:26:34;;;;;;;0.82;0.82;;;5.50;99.90;;;;;;4949459;29;20039;-82
2023/11/24 06:29:00;;;;;;;0.25;0.25;;;5.50;99.90;;;;;;4950800;29;20436;-81
2023/11/24 06:31:26;;;;;;;0.32;0.32;;;5.40;99.90;;;;;;4945599;29;20051;-81
2023/11/24 06:33:52;;;;;;;0.30;0.30;;;5.50;99.90;;;;;;4945075;29;20039;-81
2023/11/24 06:36:18;;;;;;;0.45;0.45;;;5.50;99.90;;;;;;4930276;29;20040;-81
2023/11/24 06:38:45;;;;;;;2.05;1.02;;;5.50;99.90;;;;;;4935228;29;20062;-81
2023/11/24 06:41:13;;;;;;;4.05;0.45;;;5.50;99.90;;;;;;4951394;29;20038;-79
2023/11/24 06:43:39;;;;;;;0.47;0.47;;;5.50;99.90;;;;;;4942946;29;20136;-80
2023/11/24 06:46:05;;;;;;;1.90;1.45;;;5.50;99.90;;;;;;4944941;29;20036;-80
2023/11/24 06:48:32;;;;;;;0.47;0.47;;;5.60;99.90;;;;;;4946769;29;20035;-80
2023/11/24 06:51:02;;;;;;;0.20;0.20;;;5.70;99.90;;;;;;4951176;29;20031;-80
2023/11/24 06:53:28;;;;;;;1.33;1.20;;;5.80;99.90;;;;;;4944289;29;20042;-79
2023/11/24 06:55:54;;;;;;;0.30;0.30;;;5.80;99.90;;;;;;4940682;29;20043;-79
2023/11/24 06:58:20;;;;;;;0.60;0.52;;;5.80;99.90;;;;;;4948485;29;20040;-80
2023/11/24 07:00:50;;;;;;;0.20;0.20;;;5.80;99.90;;;;;;4948997;29;20031;-79
2023/11/24 07:03:16;;;;;;;0.35;0.30;;;5.80;99.90;;;;;;4930919;29;20061;-80
2023/11/24 07:05:43;;;;;;;0.20;0.20;;;5.80;99.90;;;;;;4943925;28;20027;-80
2023/11/24 07:08:09;;;;;;;1.10;0.28;;;5.70;99.90;;;;;;4946230;29;20044;-79
2023/11/24 07:10:35;;;;;;;5.25;3.78;;;5.70;99.90;;;;;;4951504;28;20403;-79
2023/11/24 07:13:02;;;;;;;3.13;1.67;;;5.70;99.90;;;;;;4948030;29;20038;-79
2023/11/24 07:15:28;;;;;;;0.80;0.45;;;5.80;99.90;;;;;;4945444;28;20058;-80
2023/11/24 07:17:54;;;;;;;0.40;0.40;;;5.80;99.90;;;;;;4945121;29;20058;-79
2023/11/24 07:20:21;;;;;;;1.10;0.65;;;5.80;91.90;;;;;;4946989;29;20056;-80
2023/11/24 07:22:48;;;;;;;0.10;0.10;;;5.90;51.20;;;;;;4949340;29;20039;-78
2023/11/24 07:25:14;;;;;;;0.25;0.25;;;6.00;49.60;;;;;;4944333;29;20039;-79
2023/11/24 07:27:41;;;;;;;0.90;0.45;;;5.90;51.10;;;;;;4943081;28;20047;-79
2023/11/24 07:30:09;;;;;;;0.20;0.20;;;6.00;14.20;;;;;;4946294;29;20035;-80
2023/11/24 07:32:37;;;;;;;0.65;0.50;;;6.10;25.70;;;;;;4947421;29;20051;-79
2023/11/24 07:35:04;;;;;;;1.95;1.05;;;6.10;25.20;;;;;;4944725;28;20043;-79
2023/11/24 07:37:30;;;;;;;0.98;0.85;;;6.10;14.90;;;;;;4938896;29;20042;-81
2023/11/24 07:39:56;;;;;;;0.57;0.57;;;6.20;1.00;;;;;;4950672;29;20036;-79
2023/11/24 07:42:22;;;;;;;0.38;0.35;;;6.30;1.00;;;;;;4953461;29;20027;-79
2023/11/24 07:44:49;;;;;;;6.30;2.53;;;6.40;1.00;;;;;;4951129;29;20039;-80
2023/11/24 07:47:18;;;;;;;1.30;1.23;;;6.40;1.00;;;;;;4942233;29;20047;-80
2023/11/24 07:49:47;;;;;;;0.95;0.90;;;6.50;1.00;;;;;;4940081;29;20465;-80
2023/11/24 07:52:14;;;;;;;2.90;0.98;;;6.40;1.00;;;;;;4946181;29;20036;-79
2023/11/24 07:54:43;;;;;;;5.85;1.08;;;6.40;1.00;;;;;;4944567;28;20032;-82
2023/11/24 07:57:09;;;;;;;2.28;1.23;;;6.50;1.00;;;;;;4944206;28;20032;-79
2023/11/24 07:59:35;;;;;;;0.50;0.50;;;6.70;1.00;;;;;;4946588;28;20050;-81
2023/11/24 08:02:02;;;;;;;1.45;1.35;;;6.90;1.00;;;;;;4957923;28;20031;-81
2023/11/24 08:04:28;;;;;;;2.15;1.40;;;6.90;99.90;;;;;;4934502;29;20039;-81
2023/11/24 08:06:55;;;;;;;0.22;0.22;;;6.90;99.90;;;;;;4949039;28;20042;-80
2023/11/24 08:09:21;;;;;;;0.10;0.10;;;6.90;99.90;;;;;;4948803;28;20043;-76
2023/11/24 08:11:47;;;;;;;0.28;0.28;;;6.80;99.90;;;;;;4946568;28;20031;-76
2023/11/24 08:14:14;;;;;;;0.25;0.25;;;6.80;99.90;;;;;;4951476;28;20050;-77
2023/11/24 08:16:40;;;;;;;2.25;1.35;;;6.80;99.90;;;;;;4940123;28;20389;-78
2023/11/24 08:19:08;;;;;;;0.43;0.43;;;6.90;99.90;;;;;;4942746;29;20081;-78
2023/11/24 08:21:34;;;;;;;0.10;0.10;;;6.90;99.90;;;;;;4945653;28;20480;-78
2023/11/24 08:24:00;;;;;;;0.10;0.10;;;7.00;99.90;;;;;;4961406;28;20400;-79
2023/11/24 08:26:27;;;;;;;0.10;0.10;;;7.00;99.90;;;;;;4941700;29;20031;-78
2023/11/24 08:28:53;;;;;;;0.35;0.35;;;7.00;99.90;;;;;;4944500;29;20039;-78
2023/11/24 08:31:21;;;;;;;0.10;0.10;;;7.00;99.90;;;;;;4946555;29;20407;-77
2023/11/24 08:33:48;;;;;;;0.50;0.22;;;7.00;99.90;;;;;;4945382;29;20023;-78
2023/11/24 08:36:15;;;;;;;1.10;0.68;;;7.10;99.90;;;;;;4946532;29;20086;-77
2023/11/24 08:38:42;;;;;;;0.10;0.10;;;7.10;99.90;;;;;;4944967;29;20117;-79
2023/11/24 08:41:16;;;;;;;0.50;0.50;;;7.10;99.90;;;;;;4943204;29;20048;-77
2023/11/24 08:43:44;;;;;;;0.80;0.47;;;7.10;99.90;;;;;;4943606;29;20042;-78
2023/11/24 08:46:11;;;;;;;3.80;1.85;;;7.20;99.90;;;;;;4946947;28;20043;-78
2023/11/24 08:48:39;;;;;;;0.20;0.20;;;7.20;99.90;;;;;;4945336;29;20042;-78
2023/11/24 08:51:07;;;;;;;0.10;0.10;;;7.20;99.90;;;;;;4943559;29;20378;-78
2023/11/24 08:53:34;;;;;;;0.17;0.17;;;7.20;99.90;;;;;;4937843;29;20036;-79
2023/11/24 08:56:03;;;;;;;0.85;0.65;;;7.10;99.90;;;;;;4946124;29;20050;-77
2023/11/24 08:58:30;;;;;;;0.35;0.35;;;7.10;99.90;;;;;;4945776;29;20046;-77
2023/11/24 09:00:57;;;;;;;1.30;0.55;;;7.20;99.90;;;;;;4945026;29;20039;-78
2023/11/24 09:03:26;;;;;;;0.10;0.10;;;7.20;99.90;;;;;;4943899;29;20047;-76
2023/11/24 09:05:53;;;;;;;5.43;1.10;;;7.20;99.90;;;;;;4943773;29;20050;-77
2023/11/24 09:08:19;;;;;;;0.25;0.25;;;7.20;99.90;;;;;;4945402;29;20480;-77
2023/11/24 09:10:47;;;;;;;0.20;0.20;;;7.10;99.90;;;;;;4946201;29;20043;-77
2023/11/24 09:13:13;;;;;;;0.10;0.10;;;7.10;99.90;;;;;;4939835;29;20051;-76
2023/11/24 09:15:41;;;;;;;0.10;0.10;;;7.00;99.90;;;;;;4940140;29;20035;-77
2023/11/24 09:18:07;;;;;;;0.55;0.55;;;7.00;99.90;;;;;;4944617;29;20899;-77
2023/11/24 09:20:34;;;;;;;0.45;0.45;;;6.90;99.90;;;;;;4947122;29;20377;-77
2023/11/24 09:23:00;;;;;;;0.10;0.10;;;6.90;99.90;;;;;;4943687;29;20047;-77
2023/11/24 09:25:26;;;;;;;0.10;0.10;;;6.90;99.90;;;;;;4941589;29;20038;-77
2023/11/24 09:27:52;;;;;;;6.60;0.85;;;6.90;99.90;;;;;;4946067;29;20416;-77
2023/11/24 09:30:19;;;;;;;0.10;0.10;;;6.90;99.90;;;;;;4945518;29;20031;-77
2023/11/24 09:32:49;;;;;;;0.10;0.10;;;7.00;99.90;;;;;;4946175;29;20039;-77
2023/11/24 09:35:16;;;;;;;0.10;0.10;;;7.00;99.90;;;;;;4941700;29;20477;-77
2023/11/24 09:37:42;;;;;;;0.52;0.45;;;7.00;99.90;;;;;;4927188;29;20040;-77
2023/11/24 09:40:13;;;;;;;0.57;0.52;;;7.10;99.90;;;;;;4946923;29;20042;-76
2023/11/24 09:42:42;;;;;;;1.02;0.73;;;7.10;99.90;;;;;;4930966;29;20039;-76
2023/11/24 09:45:14;;;;;;;0.10;0.10;;;7.10;99.90;;;;;;4943042;29;20035;-77
2023/11/24 09:47:52;;;;;;;0.10;0.10;;;7.20;99.90;;;;;;4940323;29;20048;-77
2023/11/24 09:50:26;;;;;;;0.10;0.10;;;7.20;99.90;;;;;;4946960;29;20051;-76
2023/11/24 09:52:57;;;;;;;0.10;0.10;;;7.30;99.90;;;;;;4945706;29;20039;-77
2023/11/24 09:55:24;;;;;;;0.75;0.75;;;7.40;99.90;;;;;;4945149;29;20038;-78
2023/11/24 09:57:50;;;;;;;3.50;1.55;;;7.40;99.90;;;;;;4937909;29;20036;-77
2023/11/24 10:00:19;;;;;;;0.10;0.10;;;7.40;99.90;;;;;;4947968;29;20031;-76
2023/11/24 10:02:47;;;;;;;0.10;0.10;;;7.50;99.90;;;;;;4949268;29;20468;-78
2023/11/24 10:05:19;;;;;;;0.25;0.25;;;7.50;99.90;;;;;;4951606;29;20038;-78
2023/11/24 10:07:52;;;;;;;0.85;0.55;;;7.60;99.90;;;;;;4943471;29;20054;-77
2023/11/24 10:10:22;;;;;;;0.40;0.40;;;7.80;99.90;;;;;;4946657;29;20035;-75
2023/11/24 10:12:52;;;;;;;0.20;0.20;;;7.90;99.90;;;;;;4949331;29;20042;-76
2023/11/24 10:15:22;;;;;;;0.13;0.13;;;7.90;99.90;;;;;;4949445;29;20473;-77
2023/11/24 10:17:49;;;;;;;2.45;0.70;;;7.80;99.90;;;;;;4925812;29;20055;-76
2023/11/24 10:20:18;;;;;;;3.95;1.25;;;7.80;99.90;;;;;;4943469;29;20059;-77
2023/11/24 10:22:49;;;;;;;7.63;1.45;;;7.80;99.90;;;;;;4947550;29;20039;-77
2023/11/24 10:25:20;;;;;;;0.17;0.17;;;7.80;99.90;;;;;;4950212;29;20031;-77
2023/11/24 10:27:47;;;;;;;3.50;1.55;;;7.80;99.90;;;;;;4946967;29;20051;-77
2023/11/24 10:30:14;;;;;;;0.35;0.35;;;7.90;99.90;;;;;;4945212;29;20035;-78
2023/11/24 10:32:43;;;;;;;0.20;0.20;;;7.90;99.90;;;;;;4947487;29;20276;-77
2023/11/24 10:35:12;;;;;;;0.68;0.43;;;8.00;99.90;;;;;;4950531;29;20034;-78
2023/11/24 10:37:42;;;;;;;1.08;0.73;;;8.00;99.90;;;;;;4944316;29;20046;-78
2023/11/24 10:40:13;;;;;;;0.28;0.28;;;8.00;99.90;;;;;;4941222;28;20051;-78
2023/11/24 10:42:40;;;;;;;0.20;0.20;;;8.10;99.90;;;;;;4947555;29;20373;-79
2023/11/24 10:45:11;;;;;;;0.40;0.30;;;8.00;99.90;;;;;;4946328;29;20032;-79
2023/11/24 10:47:50;;;;;;;0.75;0.40;;;7.90;99.90;;;;;;4948360;28;20038;-78
2023/11/24 10:50:24;;;;;;;0.10;0.10;;;7.70;99.90;;;;;;4955357;28;20046;-79
2023/11/24 10:53:22;;;;;;;0.38;0.38;;;7.70;99.90;;;;;;4960213;28;20039;-78
2023/11/24 10:55:48;;;;;;;0.50;0.45;;;7.60;99.90;;;;;;4949325;28;20698;-80
2023/11/24 10:58:15;;;;;;;0.10;0.10;;;7.60;99.90;;;;;;4957001;28;20051;-78
2023/11/24 11:00:42;;;;;;;1.08;0.50;;;7.70;99.90;;;;;;4955867;28;20116;-78
2023/11/24 11:03:12;;;;;;;0.00;0.00;;;7.80;99.90;;;;;;4959674;28;20031;-80
2023/11/24 11:05:58;;;;;;;0.30;0.30;;;7.80;99.90;;;;;;4946094;29;20046;-79
2023/11/24 11:08:34;;;;;;;0.50;0.50;;;7.80;99.90;;;;;;4937121;29;20131;-80
2023/11/24 11:11:06;;;;;;;1.27;0.90;;;7.80;99.90;;;;;;4943425;29;20071;-78
2023/11/24 11:13:37;;;;;;;0.10;0.10;;;7.80;99.90;;;;;;4943193;29;20043;-80
2023/11/24 11:16:05;;;;;;;0.10;0.10;;;7.90;99.90;;;;;;4948124;29;20032;-79
2023/11/24 11:18:33;;;;;;;1.65;0.80;;;8.00;99.90;;;;;;4955088;28;20496;-80
2023/11/24 11:21:10;;;;;;;0.10;0.10;;;8.10;99.90;;;;;;4958514;28;20036;-78
2023/11/24 11:23:41;;;;;;;0.00;0.00;;;8.20;99.90;;;;;;4955039;28;20038;-79
2023/11/24 11:26:08;;;;;;;0.10;0.10;;;8.20;99.90;;;;;;4955520;28;20035;-80
2023/11/24 11:28:35;;;;;;;1.33;0.15;;;8.20;99.90;;;;;;4958477;28;20046;-79
2023/11/24 11:31:35;;;;;;;0.10;0.10;;;8.00;99.90;;;;;;4948031;29;20038;-77
2023/11/24 11:34:12;;;;;;;0.10;0.10;;;7.80;99.90;;;;;;4934314;28;20066;-78
2023/11/24 11:36:50;;;;;;;0.10;0.10;;;7.80;99.90;;;;;;4938153;29;20047;-78
2023/11/24 11:39:21;;;;;;;0.28;0.22;;;7.80;97.20;;;;;;4945135;29;20031;-79
2023/11/24 11:41:51;;;;;;;0.32;0.32;;;7.80;99.90;;;;;;4957560;28;20035;-79
2023/11/24 11:44:33;;;;;;;0.10;0.10;;;8.00;97.40;;;;;;4946257;28;20043;-77
2023/11/24 11:47:18;;;;;;;0.08;0.08;;;8.10;71.40;;;;;;4944941;29;20035;-79
2023/11/24 11:49:54;;;;;;;0.10;0.10;;;8.20;28.50;;;;;;4948687;28;20039;-79
2023/11/24 11:52:22;;;;;;;0.20;0.20;;;8.20;9.90;;;;;;4956151;28;20039;-78
2023/11/24 11:54:51;;;;;;;1.45;0.82;;;8.20;12.00;;;;;;4955697;28;20035;-78
2023/11/24 11:57:20;;;;;;;0.65;0.65;;;8.20;1.00;;;;;;4957881;28;20408;-78
2023/11/24 11:59:48;;;;;;;0.35;0.35;;;8.20;1.00;;;;;;4954379;28;20040;-77
2023/11/24 12:02:21;;;;;;;0.10;0.10;;;8.30;1.00;;;;;;4948633;28;20039;-76
2023/11/24 12:04:48;;;;;;;0.57;0.57;;;8.30;1.00;;;;;;4943177;28;20358;-80
2023/11/24 12:07:15;;;;;;;0.10;0.10;;;8.40;1.00;;;;;;4940675;29;20449;-80
2023/11/24 12:09:41;;;;;;;0.20;0.20;;;8.40;99.90;;;;;;4944476;29;20392;-79
2023/11/24 12:12:11;;;;;;;0.10;0.10;;;8.40;99.90;;;;;;4949388;29;20035;-79
2023/11/24 12:14:41;;;;;;;0.45;0.40;;;8.30;99.90;;;;;;4943072;29;20046;-78
2023/11/24 12:17:09;;;;;;;0.20;0.20;;;8.40;99.90;;;;;;4937141;28;20039;-78
2023/11/24 12:19:37;;;;;;;1.15;0.75;;;8.30;99.90;;;;;;4946999;29;20457;-82
2023/11/24 12:22:05;;;;;;;0.85;0.55;;;8.30;99.90;;;;;;4947538;28;20066;-84
2023/11/24 12:24:33;;;;;;;0.85;0.85;;;8.30;1.00;;;;;;4950443;29;20487;-82
2023/11/24 12:27:01;;;;;;;0.10;0.10;;;8.30;1.00;;;;;;4945259;28;20031;-80
2023/11/24 12:29:28;;;;;;;0.10;0.10;;;8.40;99.90;;;;;;4946158;29;20032;-80
2023/11/24 12:31:54;;;;;;;0.38;0.15;;;8.30;99.90;;;;;;4950014;29;20511;-81
2023/11/24 12:34:22;;;;;;;0.30;0.20;;;8.20;99.90;;;;;;4949313;29;20046;-81
2023/11/24 12:36:50;;;;;;;0.10;0.10;;;8.20;99.90;;;;;;4942475;29;20047;-79
2023/11/24 12:39:17;;;;;;;0.10;0.10;;;8.10;99.90;;;;;;4945336;28;20395;-80
2023/11/24 12:41:44;;;;;;;0.10;0.10;;;7.90;1.00;;;;;;4932745;28;20049;-78
2023/11/24 12:44:11;;;;;;;4.20;1.85;;;7.60;1.00;;;;;;4949545;28;20047;-82
2023/11/24 12:46:38;;;;;;;0.10;0.10;;;7.30;1.70;;;;;;4945128;28;20392;-80
2023/11/24 12:49:05;;;;;;;0.10;0.10;;;6.40;99.90;;;;;;4956011;28;20112;-81
2023/11/24 12:51:32;;;;;;;0.10;0.10;;;5.60;99.90;;;;;;4957474;28;20042;-86
2023/11/24 12:54:04;;;;;;;0.10;0.10;;;4.90;99.90;;;;;;4955393;28;20271;-82
2023/11/24 12:56:30;;;;;;;0.32;0.32;;;4.70;99.90;;;;;;4941000;28;20046;-82
2023/11/24 12:58:56;;;;;;;0.60;0.60;;;4.60;1.00;;;;;;4938441;28;20051;-83